sensor_id;sensor_type;location;lat;lon;timestamp;pressure;altitude;pressure_sealevel;temperature;humidity
37066;BME280;22981;43.080;25.550;2022-10-31T00:01:19;99920.98;;;11.77;61.86
37066;BME280;22981;43.080;25.550;2022-10-31T00:03:47;99924.11;;;11.74;61.90
37066;BME280;22981;43.080;25.550;2022-10-31T00:06:15;99925.75;;;11.75;61.92
37066;BME280;22981;43.080;25.550;2022-10-31T00:08:51;99920.22;;;11.70;62.03
37066;BME280;22981;43.080;25.550;2022-10-31T00:11:14;99925.61;;;11.63;62.10
37066;BME280;22981;43.080;25.550;2022-10-31T00:13:42;99927.30;;;11.58;62.22
37066;BME280;22981;43.080;25.550;2022-10-31T00:16:17;99931.73;;;11.54;62.31
37066;BME280;22981;43.080;25.550;2022-10-31T00:18:55;99933.83;;;11.52;62.45
37066;BME280;22981;43.080;25.550;2022-10-31T00:21:19;99930.17;;;11.56;62.47
37066;BME280;22981;43.080;25.550;2022-10-31T00:23:47;99935.94;;;11.60;62.44
37066;BME280;22981;43.080;25.550;2022-10-31T00:26:15;99938.95;;;11.61;62.49
37066;BME280;22981;43.080;25.550;2022-10-31T00:28:43;99941.92;;;11.62;62.45
37066;BME280;22981;43.080;25.550;2022-10-31T00:31:12;99942.05;;;11.58;62.53
37066;BME280;22981;43.080;25.550;2022-10-31T00:33:40;99943.51;;;11.53;62.63
37066;BME280;22981;43.080;25.550;2022-10-31T00:36:14;99948.58;;;11.52;62.79
37066;BME280;22981;43.080;25.550;2022-10-31T00:38:42;99945.45;;;11.56;62.90
37066;BME280;22981;43.080;25.550;2022-10-31T00:41:11;99948.23;;;11.58;63.03
37066;BME280;22981;43.080;25.550;2022-10-31T00:43:39;99952.20;;;11.65;63.18
37066;BME280;22981;43.080;25.550;2022-10-31T00:46:07;99955.91;;;11.70;63.25
37066;BME280;22981;43.080;25.550;2022-10-31T00:48:34;99955.61;;;11.69;63.27
37066;BME280;22981;43.080;25.550;2022-10-31T00:51:02;99953.69;;;11.61;63.33
37066;BME280;22981;43.080;25.550;2022-10-31T00:53:29;99949.69;;;11.54;63.52
37066;BME280;22981;43.080;25.550;2022-10-31T00:55:57;99952.59;;;11.52;63.56
37066;BME280;22981;43.080;25.550;2022-10-31T00:58:24;99955.28;;;11.52;63.65
37066;BME280;22981;43.080;25.550;2022-10-31T01:00:52;99947.83;;;11.54;63.65
37066;BME280;22981;43.080;25.550;2022-10-31T01:03:25;99948.23;;;11.58;63.69
37066;BME280;22981;43.080;25.550;2022-10-31T01:06:08;99952.35;;;11.61;63.73
37066;BME280;22981;43.080;25.550;2022-10-31T01:08:37;99956.37;;;11.61;63.77
37066;BME280;22981;43.080;25.550;2022-10-31T01:11:14;99957.09;;;11.59;63.79
37066;BME280;22981;43.080;25.550;2022-10-31T01:13:42;99954.41;;;11.59;63.82
37066;BME280;22981;43.080;25.550;2022-10-31T01:16:12;99961.81;;;11.63;63.82
37066;BME280;22981;43.080;25.550;2022-10-31T01:18:40;99955.20;;;11.66;63.79
37066;BME280;22981;43.080;25.550;2022-10-31T01:21:10;99959.62;;;11.69;63.74
37066;BME280;22981;43.080;25.550;2022-10-31T01:23:39;99955.28;;;11.68;63.70
37066;BME280;22981;43.080;25.550;2022-10-31T01:26:10;99945.42;;;11.62;63.80
37066;BME280;22981;43.080;25.550;2022-10-31T01:28:40;99950.22;;;11.53;63.93
37066;BME280;22981;43.080;25.550;2022-10-31T01:31:08;99946.20;;;11.47;64.16
37066;BME280;22981;43.080;25.550;2022-10-31T01:33:36;99948.17;;;11.49;64.23
37066;BME280;22981;43.080;25.550;2022-10-31T01:36:21;99939.27;;;11.55;64.27
37066;BME280;22981;43.080;25.550;2022-10-31T01:38:50;99945.32;;;11.60;64.26
37066;BME280;22981;43.080;25.550;2022-10-31T01:41:21;99943.33;;;11.64;64.16
37066;BME280;22981;43.080;25.550;2022-10-31T01:46:31;99953.34;;;11.66;64.20
37066;BME280;22981;43.080;25.550;2022-10-31T01:49:01;99960.17;;;11.62;64.26
37066;BME280;22981;43.080;25.550;2022-10-31T01:51:36;99964.09;;;11.60;64.27
37066;BME280;22981;43.080;25.550;2022-10-31T01:54:02;99968.34;;;11.58;64.33
37066;BME280;22981;43.080;25.550;2022-10-31T01:56:30;99969.68;;;11.58;64.44
37066;BME280;22981;43.080;25.550;2022-10-31T01:59:00;99968.56;;;11.57;64.39
37066;BME280;22981;43.080;25.550;2022-10-31T02:01:29;99973.42;;;11.50;64.59
37066;BME280;22981;43.080;25.550;2022-10-31T02:03:57;99967.98;;;11.48;64.63
37066;BME280;22981;43.080;25.550;2022-10-31T02:06:32;99973.66;;;11.42;64.65
37066;BME280;22981;43.080;25.550;2022-10-31T02:08:58;99967.08;;;11.38;64.81
37066;BME280;22981;43.080;25.550;2022-10-31T02:11:28;99965.32;;;11.41;64.86
37066;BME280;22981;43.080;25.550;2022-10-31T02:13:57;99967.88;;;11.45;64.87
37066;BME280;22981;43.080;25.550;2022-10-31T02:16:25;99972.70;;;11.52;64.84
37066;BME280;22981;43.080;25.550;2022-10-31T02:18:53;99974.52;;;11.59;64.78
37066;BME280;22981;43.080;25.550;2022-10-31T02:36:03;99961.34;;;11.57;64.66
37066;BME280;22981;43.080;25.550;2022-10-31T02:38:35;99958.84;;;11.56;64.63
37066;BME280;22981;43.080;25.550;2022-10-31T02:41:27;99958.60;;;11.48;64.75
37066;BME280;22981;43.080;25.550;2022-10-31T02:44:06;99953.79;;;11.34;65.10
37066;BME280;22981;43.080;25.550;2022-10-31T02:46:52;99944.45;;;11.27;65.13
37066;BME280;22981;43.080;25.550;2022-10-31T02:49:27;99946.84;;;11.26;65.11
37066;BME280;22981;43.080;25.550;2022-10-31T02:51:55;99949.89;;;11.30;65.19
37066;BME280;22981;43.080;25.550;2022-10-31T02:54:24;99953.79;;;11.34;65.17
37066;BME280;22981;43.080;25.550;2022-10-31T02:57:01;99957.50;;;11.40;65.14
37066;BME280;22981;43.080;25.550;2022-10-31T02:59:29;99968.11;;;11.44;65.05
37066;BME280;22981;43.080;25.550;2022-10-31T03:02:07;99967.70;;;11.40;65.04
37066;BME280;22981;43.080;25.550;2022-10-31T03:04:48;99981.12;;;11.34;65.12
37066;BME280;22981;43.080;25.550;2022-10-31T03:12:45;99987.16;;;11.22;65.53
37066;BME280;22981;43.080;25.550;2022-10-31T03:15:19;99993.52;;;11.21;65.47
37066;BME280;22981;43.080;25.550;2022-10-31T03:18:01;99994.05;;;11.21;65.45
37066;BME280;22981;43.080;25.550;2022-10-31T03:20:33;100003.23;;;11.16;65.47
37066;BME280;22981;43.080;25.550;2022-10-31T03:23:01;99995.31;;;11.12;65.47
37066;BME280;22981;43.080;25.550;2022-10-31T03:25:30;99996.88;;;11.10;65.52
37066;BME280;22981;43.080;25.550;2022-10-31T03:28:00;100004.09;;;11.10;65.52
37066;BME280;22981;43.080;25.550;2022-10-31T03:30:30;100009.45;;;11.10;65.49
37066;BME280;22981;43.080;25.550;2022-10-31T03:32:59;100011.80;;;11.09;65.47
37066;BME280;22981;43.080;25.550;2022-10-31T03:35:29;100011.80;;;11.09;65.46
37066;BME280;22981;43.080;25.550;2022-10-31T03:37:59;100007.48;;;11.08;65.46
37066;BME280;22981;43.080;25.550;2022-10-31T03:40:28;100012.43;;;11.04;65.49
37066;BME280;22981;43.080;25.550;2022-10-31T03:43:04;100014.28;;;11.03;65.47
37066;BME280;22981;43.080;25.550;2022-10-31T03:45:31;100020.69;;;11.02;65.45
37066;BME280;22981;43.080;25.550;2022-10-31T03:48:00;100018.11;;;10.98;65.50
37066;BME280;22981;43.080;25.550;2022-10-31T03:50:33;100017.52;;;10.96;65.54
37066;BME280;22981;43.080;25.550;2022-10-31T03:54:07;100023.36;;;10.96;65.58
37066;BME280;22981;43.080;25.550;2022-10-31T03:55:48;100028.64;;;10.93;65.61
37066;BME280;22981;43.080;25.550;2022-10-31T03:58:23;100026.37;;;10.90;65.67
37066;BME280;22981;43.080;25.550;2022-10-31T04:00:52;100021.23;;;10.89;65.71
37066;BME280;22981;43.080;25.550;2022-10-31T04:03:25;100025.25;;;10.89;65.77
37066;BME280;22981;43.080;25.550;2022-10-31T04:05:56;100025.95;;;10.87;65.90
37066;BME280;22981;43.080;25.550;2022-10-31T04:08:31;100031.53;;;10.85;66.01
37066;BME280;22981;43.080;25.550;2022-10-31T04:10:56;100032.65;;;10.87;66.05
37066;BME280;22981;43.080;25.550;2022-10-31T04:13:27;100036.67;;;10.87;66.06
37066;BME280;22981;43.080;25.550;2022-10-31T04:15:55;100043.48;;;10.89;66.03
37066;BME280;22981;43.080;25.550;2022-10-31T04:18:23;100042.73;;;10.91;66.03
37066;BME280;22981;43.080;25.550;2022-10-31T04:21:02;100042.63;;;10.95;66.04
37066;BME280;22981;43.080;25.550;2022-10-31T04:23:31;100037.39;;;10.98;66.27
37066;BME280;22981;43.080;25.550;2022-10-31T04:25:59;100042.97;;;10.96;66.22
37066;BME280;22981;43.080;25.550;2022-10-31T04:28:27;100043.88;;;10.86;66.26
37066;BME280;22981;43.080;25.550;2022-10-31T04:30:54;100046.66;;;10.82;66.35
37066;BME280;22981;43.080;25.550;2022-10-31T04:33:22;100051.09;;;10.79;66.42
37066;BME280;22981;43.080;25.550;2022-10-31T04:35:49;100052.23;;;10.81;66.48
37066;BME280;22981;43.080;25.550;2022-10-31T04:38:17;100052.32;;;10.83;66.50
37066;BME280;22981;43.080;25.550;2022-10-31T04:40:45;100058.02;;;10.84;66.50
37066;BME280;22981;43.080;25.550;2022-10-31T04:43:13;100060.06;;;10.82;66.54
37066;BME280;22981;43.080;25.550;2022-10-31T04:45:40;100064.91;;;10.76;66.57
37066;BME280;22981;43.080;25.550;2022-10-31T04:48:08;100061.91;;;10.68;66.69
37066;BME280;22981;43.080;25.550;2022-10-31T04:50:35;100059.56;;;10.63;66.82
37066;BME280;22981;43.080;25.550;2022-10-31T04:53:03;100064.39;;;10.63;66.93
37066;BME280;22981;43.080;25.550;2022-10-31T04:55:30;100073.84;;;10.66;66.87
37066;BME280;22981;43.080;25.550;2022-10-31T04:57:58;100080.55;;;10.66;66.85
37066;BME280;22981;43.080;25.550;2022-10-31T05:00:25;100075.52;;;10.67;66.87
37066;BME280;22981;43.080;25.550;2022-10-31T05:02:55;100078.60;;;10.64;66.87
37066;BME280;22981;43.080;25.550;2022-10-31T05:05:26;100083.11;;;10.57;66.98
37066;BME280;22981;43.080;25.550;2022-10-31T05:07:53;100091.16;;;10.50;67.16
37066;BME280;22981;43.080;25.550;2022-10-31T05:10:24;100098.16;;;10.51;67.17
37066;BME280;22981;43.080;25.550;2022-10-31T05:12:53;100097.11;;;10.52;67.14
37066;BME280;22981;43.080;25.550;2022-10-31T05:15:23;100099.61;;;10.53;67.06
37066;BME280;22981;43.080;25.550;2022-10-31T05:17:51;100103.20;;;10.50;67.11
37066;BME280;22981;43.080;25.550;2022-10-31T05:20:20;100106.39;;;10.49;67.15
37066;BME280;22981;43.080;25.550;2022-10-31T05:22:50;100110.41;;;10.49;67.16
37066;BME280;22981;43.080;25.550;2022-10-31T05:25:20;100117.19;;;10.52;67.15
37066;BME280;22981;43.080;25.550;2022-10-31T05:27:49;100117.92;;;10.57;67.12
37066;BME280;22981;43.080;25.550;2022-10-31T05:30:23;100113.20;;;10.59;67.07
37066;BME280;22981;43.080;25.550;2022-10-31T05:32:51;100118.66;;;10.55;67.11
37066;BME280;22981;43.080;25.550;2022-10-31T05:35:21;100120.60;;;10.50;67.24
37066;BME280;22981;43.080;25.550;2022-10-31T05:37:50;100126.05;;;10.52;67.26
37066;BME280;22981;43.080;25.550;2022-10-31T05:40:18;100121.75;;;10.58;67.20
37066;BME280;22981;43.080;25.550;2022-10-31T05:42:47;100120.02;;;10.68;67.06
37066;BME280;22981;43.080;25.550;2022-10-31T05:45:17;100124.66;;;10.76;66.90
37066;BME280;22981;43.080;25.550;2022-10-31T05:47:59;100126.72;;;10.81;66.78
37066;BME280;22981;43.080;25.550;2022-10-31T05:50:28;100126.83;;;10.84;66.70
37066;BME280;22981;43.080;25.550;2022-10-31T05:53:04;100130.95;;;10.80;66.71
37066;BME280;22981;43.080;25.550;2022-10-31T05:55:27;100130.62;;;10.72;66.86
37066;BME280;22981;43.080;25.550;2022-10-31T05:57:55;100129.59;;;10.66;67.09
37066;BME280;22981;43.080;25.550;2022-10-31T06:00:23;100122.17;;;10.68;67.20
37066;BME280;22981;43.080;25.550;2022-10-31T06:02:59;100120.95;;;10.71;67.21
37066;BME280;22981;43.080;25.550;2022-10-31T06:05:27;100127.33;;;10.76;67.18
37066;BME280;22981;43.080;25.550;2022-10-31T06:07:55;100132.48;;;10.91;67.05
37066;BME280;22981;43.080;25.550;2022-10-31T06:10:22;100131.47;;;11.06;66.84
37066;BME280;22981;43.080;25.550;2022-10-31T06:12:50;100134.25;;;11.15;66.69
37066;BME280;22981;43.080;25.550;2022-10-31T06:15:18;100137.33;;;11.32;66.63
37066;BME280;22981;43.080;25.550;2022-10-31T06:17:45;100137.31;;;11.45;66.30
37066;BME280;22981;43.080;25.550;2022-10-31T06:20:13;100146.88;;;11.50;66.18
37066;BME280;22981;43.080;25.550;2022-10-31T06:22:40;100150.80;;;11.61;66.04
37066;BME280;22981;43.080;25.550;2022-10-31T06:25:08;100154.69;;;11.71;65.86
37066;BME280;22981;43.080;25.550;2022-10-31T06:27:35;100149.39;;;11.81;65.61
37066;BME280;22981;43.080;25.550;2022-10-31T06:30:03;100156.53;;;11.91;65.36
37066;BME280;22981;43.080;25.550;2022-10-31T06:32:31;100156.79;;;11.98;65.15
37066;BME280;22981;43.080;25.550;2022-10-31T06:34:59;100157.00;;;12.03;64.98
37066;BME280;22981;43.080;25.550;2022-10-31T06:37:26;100157.19;;;12.09;64.91
37066;BME280;22981;43.080;25.550;2022-10-31T06:39:54;100159.19;;;12.20;64.78
37066;BME280;22981;43.080;25.550;2022-10-31T06:42:21;100163.25;;;12.36;64.49
37066;BME280;22981;43.080;25.550;2022-10-31T06:44:49;100161.72;;;12.53;64.21
37066;BME280;22981;43.080;25.550;2022-10-31T06:47:16;100153.16;;;12.69;63.96
37066;BME280;22981;43.080;25.550;2022-10-31T06:49:44;100151.81;;;12.85;63.65
37066;BME280;22981;43.080;25.550;2022-10-31T06:52:11;100150.96;;;13.00;63.35
37066;BME280;22981;43.080;25.550;2022-10-31T06:54:39;100155.21;;;13.15;63.04
37066;BME280;22981;43.080;25.550;2022-10-31T06:57:06;100161.09;;;13.30;62.77
37066;BME280;22981;43.080;25.550;2022-10-31T06:59:34;100163.45;;;13.45;62.45
37066;BME280;22981;43.080;25.550;2022-10-31T07:02:02;100160.64;;;13.58;62.18
37066;BME280;22981;43.080;25.550;2022-10-31T07:04:29;100157.52;;;13.70;61.82
37066;BME280;22981;43.080;25.550;2022-10-31T07:06:57;100162.52;;;13.85;61.57
37066;BME280;22981;43.080;25.550;2022-10-31T07:09:24;100161.02;;;13.98;61.21
37066;BME280;22981;43.080;25.550;2022-10-31T07:11:53;100159.75;;;14.10;60.88
37066;BME280;22981;43.080;25.550;2022-10-31T07:14:20;100158.68;;;14.20;60.59
37066;BME280;22981;43.080;25.550;2022-10-31T07:16:51;100154.95;;;14.31;60.29
37066;BME280;22981;43.080;25.550;2022-10-31T07:19:19;100155.30;;;14.43;59.97
37066;BME280;22981;43.080;25.550;2022-10-31T07:21:46;100148.48;;;14.50;59.68
37066;BME280;22981;43.080;25.550;2022-10-31T07:24:14;100145.23;;;14.60;59.61
37066;BME280;22981;43.080;25.550;2022-10-31T07:26:42;100145.56;;;14.72;59.41
37066;BME280;22981;43.080;25.550;2022-10-31T07:29:09;100144.63;;;14.88;59.20
37066;BME280;22981;43.080;25.550;2022-10-31T07:31:37;100145.83;;;15.03;58.86
37066;BME280;22981;43.080;25.550;2022-10-31T07:34:05;100145.61;;;15.17;58.56
37066;BME280;22981;43.080;25.550;2022-10-31T07:36:32;100134.98;;;15.24;58.25
37066;BME280;22981;43.080;25.550;2022-10-31T07:39:00;100135.42;;;15.42;57.91
37066;BME280;22981;43.080;25.550;2022-10-31T07:41:28;100140.47;;;15.50;57.62
37066;BME280;22981;43.080;25.550;2022-10-31T07:43:56;100144.48;;;15.62;57.36
37066;BME280;22981;43.080;25.550;2022-10-31T07:46:23;100143.70;;;15.73;57.09
37066;BME280;22981;43.080;25.550;2022-10-31T07:48:51;100142.97;;;15.90;57.07
37066;BME280;22981;43.080;25.550;2022-10-31T07:51:18;100139.34;;;16.10;56.69
37066;BME280;22981;43.080;25.550;2022-10-31T07:53:46;100139.38;;;16.27;56.43
37066;BME280;22981;43.080;25.550;2022-10-31T07:56:13;100131.86;;;16.43;56.05
37066;BME280;22981;43.080;25.550;2022-10-31T07:58:41;100123.80;;;16.60;55.64
37066;BME280;22981;43.080;25.550;2022-10-31T08:01:08;100121.41;;;16.75;55.18
37066;BME280;22981;43.080;25.550;2022-10-31T08:03:36;100117.59;;;16.91;54.71
37066;BME280;22981;43.080;25.550;2022-10-31T08:06:04;100123.52;;;17.05;54.48
37066;BME280;22981;43.080;25.550;2022-10-31T08:08:31;100124.89;;;17.24;54.21
37066;BME280;22981;43.080;25.550;2022-10-31T08:10:59;100118.66;;;17.43;53.95
37066;BME280;22981;43.080;25.550;2022-10-31T08:13:26;100123.28;;;17.62;53.60
37066;BME280;22981;43.080;25.550;2022-10-31T08:15:54;100124.63;;;17.81;53.13
37066;BME280;22981;43.080;25.550;2022-10-31T08:18:22;100118.40;;;18.02;52.45
37066;BME280;22981;43.080;25.550;2022-10-31T08:20:50;100116.52;;;18.25;52.30
37066;BME280;22981;43.080;25.550;2022-10-31T08:23:17;100118.60;;;18.45;51.88
37066;BME280;22981;43.080;25.550;2022-10-31T08:25:45;100109.82;;;18.60;51.57
37066;BME280;22981;43.080;25.550;2022-10-31T08:28:14;100104.75;;;18.68;51.44
37066;BME280;22981;43.080;25.550;2022-10-31T08:30:42;100105.71;;;18.84;51.10
37066;BME280;22981;43.080;25.550;2022-10-31T08:33:14;100104.28;;;19.06;50.87
37066;BME280;22981;43.080;25.550;2022-10-31T08:35:43;100111.77;;;19.31;50.24
37066;BME280;22981;43.080;25.550;2022-10-31T08:38:12;100102.42;;;19.54;49.82
37066;BME280;22981;43.080;25.550;2022-10-31T08:40:40;100096.31;;;19.76;49.54
37066;BME280;22981;43.080;25.550;2022-10-31T08:43:13;100090.98;;;20.02;49.18
37066;BME280;22981;43.080;25.550;2022-10-31T08:45:42;100093.20;;;20.20;48.68
37066;BME280;22981;43.080;25.550;2022-10-31T08:48:12;100091.61;;;20.37;48.10
37066;BME280;22981;43.080;25.550;2022-10-31T08:50:40;100092.42;;;20.33;48.09
37066;BME280;22981;43.080;25.550;2022-10-31T08:53:11;100095.45;;;20.44;47.75
37066;BME280;22981;43.080;25.550;2022-10-31T08:55:39;100100.11;;;20.54;47.52
37066;BME280;22981;43.080;25.550;2022-10-31T08:58:16;100099.88;;;20.73;47.19
37066;BME280;22981;43.080;25.550;2022-10-31T09:00:40;100098.23;;;20.87;46.72
37066;BME280;22981;43.080;25.550;2022-10-31T09:03:16;100100.67;;;21.09;46.52
37066;BME280;22981;43.080;25.550;2022-10-31T09:05:45;100103.93;;;21.21;46.08
37066;BME280;22981;43.080;25.550;2022-10-31T09:08:13;100110.72;;;21.24;46.01
37066;BME280;22981;43.080;25.550;2022-10-31T09:10:41;100108.28;;;21.15;45.68
37066;BME280;22981;43.080;25.550;2022-10-31T09:13:19;100105.86;;;20.95;45.73
37066;BME280;22981;43.080;25.550;2022-10-31T09:15:49;100108.84;;;20.79;46.06
37066;BME280;22981;43.080;25.550;2022-10-31T09:18:19;100101.20;;;20.68;46.39
37066;BME280;22981;43.080;25.550;2022-10-31T09:20:48;100101.47;;;20.59;46.56
37066;BME280;22981;43.080;25.550;2022-10-31T09:23:21;100098.47;;;20.55;46.78
37066;BME280;22981;43.080;25.550;2022-10-31T09:25:50;100101.48;;;20.56;46.70
37066;BME280;22981;43.080;25.550;2022-10-31T09:28:21;100102.28;;;20.54;46.83
37066;BME280;22981;43.080;25.550;2022-10-31T09:30:52;100098.22;;;20.52;46.72
37066;BME280;22981;43.080;25.550;2022-10-31T09:33:21;100097.60;;;20.42;46.81
37066;BME280;22981;43.080;25.550;2022-10-31T09:35:48;100095.70;;;20.42;47.01
37066;BME280;22981;43.080;25.550;2022-10-31T09:38:18;100098.70;;;20.41;46.94
37066;BME280;22981;43.080;25.550;2022-10-31T09:40:49;100102.23;;;20.39;47.04
37066;BME280;22981;43.080;25.550;2022-10-31T09:51:44;100087.63;;;20.78;46.23
37066;BME280;22981;43.080;25.550;2022-10-31T09:56:57;100088.70;;;20.80;45.97
37066;BME280;22981;43.080;25.550;2022-10-31T09:59:32;100084.89;;;20.75;46.12
37066;BME280;22981;43.080;25.550;2022-10-31T10:04:38;100077.52;;;21.07;45.61
37066;BME280;22981;43.080;25.550;2022-10-31T10:07:12;100074.27;;;21.20;45.41
37066;BME280;22981;43.080;25.550;2022-10-31T10:09:37;100077.25;;;21.34;45.15
37066;BME280;22981;43.080;25.550;2022-10-31T10:12:17;100071.25;;;21.42;44.95
37066;BME280;22981;43.080;25.550;2022-10-31T10:15:02;100076.65;;;21.49;44.71
37066;BME280;22981;43.080;25.550;2022-10-31T10:17:44;100071.45;;;21.58;44.47
37066;BME280;22981;43.080;25.550;2022-10-31T10:20:18;100073.89;;;21.65;44.25
37066;BME280;22981;43.080;25.550;2022-10-31T10:23:20;100072.77;;;21.71;44.14
37066;BME280;22981;43.080;25.550;2022-10-31T10:25:44;100076.30;;;21.77;44.15
37066;BME280;22981;43.080;25.550;2022-10-31T10:28:20;100071.34;;;21.84;44.00
37066;BME280;22981;43.080;25.550;2022-10-31T10:31:06;100069.44;;;21.89;43.96
37066;BME280;22981;43.080;25.550;2022-10-31T10:33:36;100066.97;;;21.93;43.69
37066;BME280;22981;43.080;25.550;2022-10-31T10:36:11;100068.30;;;21.98;43.47
37066;BME280;22981;43.080;25.550;2022-10-31T10:38:49;100063.89;;;22.05;43.31
37066;BME280;22981;43.080;25.550;2022-10-31T10:41:20;100061.16;;;22.12;43.12
37066;BME280;22981;43.080;25.550;2022-10-31T10:43:50;100060.27;;;22.22;43.05
37066;BME280;22981;43.080;25.550;2022-10-31T10:49:30;100054.95;;;22.43;42.59
37066;BME280;22981;43.080;25.550;2022-10-31T10:52:07;100052.73;;;22.50;42.49
37066;BME280;22981;43.080;25.550;2022-10-31T11:00:26;100049.64;;;22.62;42.14
37066;BME280;22981;43.080;25.550;2022-10-31T11:02:54;100044.13;;;22.70;41.92
37066;BME280;22981;43.080;25.550;2022-10-31T11:05:36;100042.56;;;22.61;41.93
37066;BME280;22981;43.080;25.550;2022-10-31T11:08:05;100044.95;;;22.65;41.91
37066;BME280;22981;43.080;25.550;2022-10-31T11:10:34;100044.13;;;22.70;41.84
37066;BME280;22981;43.080;25.550;2022-10-31T11:13:05;100035.70;;;22.66;41.77
37066;BME280;22981;43.080;25.550;2022-10-31T11:15:39;100042.23;;;22.65;41.70
37066;BME280;22981;43.080;25.550;2022-10-31T11:18:03;100036.52;;;22.64;41.74
37066;BME280;22981;43.080;25.550;2022-10-31T11:20:34;100030.03;;;22.58;41.72
37066;BME280;22981;43.080;25.550;2022-10-31T11:23:19;100034.44;;;22.51;41.85
37066;BME280;22981;43.080;25.550;2022-10-31T11:26:01;100031.77;;;22.43;41.80
37066;BME280;22981;43.080;25.550;2022-10-31T11:28:30;100024.48;;;22.34;42.00
37066;BME280;22981;43.080;25.550;2022-10-31T11:31:10;100024.81;;;22.27;42.11
37066;BME280;22981;43.080;25.550;2022-10-31T11:33:39;100019.06;;;22.26;42.24
37066;BME280;22981;43.080;25.550;2022-10-31T11:36:25;100023.20;;;22.23;42.11
37066;BME280;22981;43.080;25.550;2022-10-31T11:38:54;100022.95;;;22.17;42.16
37066;BME280;22981;43.080;25.550;2022-10-31T11:41:35;100024.06;;;22.09;42.19
37066;BME280;22981;43.080;25.550;2022-10-31T11:44:19;100021.11;;;22.03;42.24
37066;BME280;22981;43.080;25.550;2022-10-31T11:46:53;100015.14;;;21.95;42.32
37066;BME280;22981;43.080;25.550;2022-10-31T11:49:35;100019.27;;;21.93;42.59
37066;BME280;22981;43.080;25.550;2022-10-31T11:52:15;100015.70;;;21.92;42.58
37066;BME280;22981;43.080;25.550;2022-10-31T11:57:33;100009.33;;;22.52;41.47
37066;BME280;22981;43.080;25.550;2022-10-31T12:00:03;100009.33;;;22.52;41.47
37066;BME280;22981;43.080;25.550;2022-10-31T12:02:31;100006.55;;;22.59;41.60
37066;BME280;22981;43.080;25.550;2022-10-31T12:05:08;100000.52;;;22.62;41.47
37066;BME280;22981;43.080;25.550;2022-10-31T12:07:35;100003.21;;;22.65;41.36
37066;BME280;22981;43.080;25.550;2022-10-31T12:10:10;100003.83;;;22.57;41.43
37066;BME280;22981;43.080;25.550;2022-10-31T12:21:01;100007.69;;;22.19;41.99
37066;BME280;22981;43.080;25.550;2022-10-31T12:26:22;99997.34;;;22.53;41.32
37066;BME280;22981;43.080;25.550;2022-10-31T12:50:59;99990.31;;;23.29;40.35
37066;BME280;22981;43.080;25.550;2022-10-31T12:56:25;99996.05;;;23.03;40.54
37066;BME280;22981;43.080;25.550;2022-10-31T12:59:11;100001.36;;;22.89;40.59
37066;BME280;22981;43.080;25.550;2022-10-31T13:01:48;100000.92;;;22.77;40.75
37066;BME280;22981;43.080;25.550;2022-10-31T13:04:24;100004.56;;;22.67;40.87
37066;BME280;22981;43.080;25.550;2022-10-31T13:06:55;100002.80;;;22.53;41.04
37066;BME280;22981;43.080;25.550;2022-10-31T13:09:25;100014.37;;;22.37;41.23
37066;BME280;22981;43.080;25.550;2022-10-31T13:11:55;100013.10;;;22.21;41.42
37066;BME280;22981;43.080;25.550;2022-10-31T13:14:30;100017.53;;;22.07;41.69
37066;BME280;22981;43.080;25.550;2022-10-31T13:17:00;100013.27;;;21.91;41.87
37066;BME280;22981;43.080;25.550;2022-10-31T13:19:34;100014.17;;;21.76;42.10
37066;BME280;22981;43.080;25.550;2022-10-31T13:22:13;100016.41;;;21.64;42.27
37066;BME280;22981;43.080;25.550;2022-10-31T13:27:26;100016.22;;;21.42;42.61
37066;BME280;22981;43.080;25.550;2022-10-31T13:32:27;100018.98;;;21.24;42.95
37066;BME280;22981;43.080;25.550;2022-10-31T13:34:56;100016.27;;;21.17;43.06
37066;BME280;22981;43.080;25.550;2022-10-31T13:37:44;100019.81;;;21.12;43.18
37066;BME280;22981;43.080;25.550;2022-10-31T13:40:27;100024.18;;;21.08;43.16
37066;BME280;22981;43.080;25.550;2022-10-31T13:42:57;100011.38;;;21.06;43.21
37066;BME280;22981;43.080;25.550;2022-10-31T13:45:25;100014.06;;;21.19;43.09
37066;BME280;22981;43.080;25.550;2022-10-31T13:50:35;100011.88;;;21.41;42.61
37066;BME280;22981;43.080;25.550;2022-10-31T13:55:47;100020.06;;;21.34;42.72
37066;BME280;22981;43.080;25.550;2022-10-31T13:58:29;100021.95;;;21.23;42.89
37066;BME280;22981;43.080;25.550;2022-10-31T14:01:18;100018.19;;;21.09;43.06
37066;BME280;22981;43.080;25.550;2022-10-31T14:03:55;99980.42;;;20.74;43.30
37066;BME280;22981;43.080;25.550;2022-10-31T14:06:16;100015.50;;;20.83;43.51
37066;BME280;22981;43.080;25.550;2022-10-31T14:08:51;100013.87;;;20.74;43.67
37066;BME280;22981;43.080;25.550;2022-10-31T14:11:24;100013.06;;;20.66;43.86
37066;BME280;22981;43.080;25.550;2022-10-31T14:13:55;100016.61;;;20.57;44.09
37066;BME280;22981;43.080;25.550;2022-10-31T14:16:28;100019.58;;;20.47;44.25
37066;BME280;22981;43.080;25.550;2022-10-31T14:19:06;100023.08;;;20.38;44.43
37066;BME280;22981;43.080;25.550;2022-10-31T14:21:27;100025.53;;;20.26;44.58
37066;BME280;22981;43.080;25.550;2022-10-31T14:23:56;100027.67;;;20.17;44.76
37066;BME280;22981;43.080;25.550;2022-10-31T14:28:57;100024.38;;;19.99;45.11
37066;BME280;22981;43.080;25.550;2022-10-31T14:31:39;100027.37;;;19.93;45.29
37066;BME280;22981;43.080;25.550;2022-10-31T14:40:05;100024.54;;;19.65;45.86
37066;BME280;22981;43.080;25.550;2022-10-31T14:51:00;100024.63;;;19.30;46.41
37066;BME280;22981;43.080;25.550;2022-10-31T14:53:46;100025.42;;;19.23;46.57